createdAt,value
2023-03-23T15:59:15.760Z,53.70
2023-03-23T16:01:46.344Z,53.70
2023-03-23T16:04:21.854Z,53.80
2023-03-23T16:06:57.156Z,53.90
2023-03-23T16:09:26.674Z,54.00
2023-03-23T16:11:55.857Z,54.10
2023-03-23T16:14:27.548Z,54.20
2023-03-23T16:16:54.539Z,54.30
2023-03-23T16:19:24.598Z,54.30
2023-03-23T16:21:51.794Z,54.40
2023-03-23T16:24:22.221Z,54.30
2023-03-23T16:26:51.558Z,54.40
2023-03-23T16:29:39.797Z,54.50
2023-03-23T16:32:08.691Z,54.50
2023-03-23T16:34:38.832Z,54.60
2023-03-23T16:37:06.732Z,54.80
2023-03-23T16:39:33.718Z,54.80
2023-03-23T16:42:00.550Z,55.10
2023-03-23T16:44:29.481Z,55.10
2023-03-23T16:46:58.658Z,55.20
2023-03-23T16:49:25.697Z,55.30
2023-03-23T16:51:54.720Z,55.50
2023-03-23T16:54:24.216Z,55.60
2023-03-23T16:56:53.458Z,55.70
2023-03-23T16:59:22.601Z,55.90
2023-03-23T17:01:49.641Z,56.50
2023-03-23T17:04:16.657Z,56.10
2023-03-23T17:06:44.121Z,56.10
2023-03-23T17:09:10.982Z,56.30
2023-03-23T17:11:40.385Z,56.30
2023-03-23T17:14:07.183Z,56.50
2023-03-23T17:16:34.253Z,56.40
2023-03-23T17:19:01.407Z,56.50
2023-03-23T17:21:28.625Z,56.50
2023-03-23T17:23:55.580Z,56.70
2023-03-23T17:26:27.341Z,56.80
2023-03-23T17:28:58.809Z,56.90
2023-03-23T17:31:25.993Z,56.90
2023-03-23T17:33:53.020Z,56.90
2023-03-23T17:36:24.889Z,56.90
2023-03-23T17:38:52.361Z,57.00
2023-03-23T17:41:21.282Z,56.90
2023-03-23T17:43:48.753Z,56.90
2023-03-23T17:46:16.180Z,57.00
2023-03-23T17:48:47.568Z,57.00
2023-03-23T17:51:14.621Z,57.00
2023-03-23T17:53:41.456Z,57.00
2023-03-23T17:56:09.483Z,57.00
2023-03-23T17:58:39.492Z,57.00
2023-03-23T18:01:12.081Z,57.10
2023-03-23T18:03:45.767Z,57.20
2023-03-23T18:06:15.692Z,57.20
2023-03-23T18:08:42.700Z,57.20
2023-03-23T18:11:12.124Z,57.10
2023-03-23T18:13:39.517Z,57.20
2023-03-23T18:16:09.674Z,57.20
2023-03-23T18:18:37.283Z,57.20
2023-03-23T18:21:08.236Z,57.20
2023-03-23T18:23:49.356Z,57.20
2023-03-23T18:26:22.974Z,57.20
2023-03-23T18:28:53.009Z,57.30
2023-03-23T18:31:20.814Z,57.30
2023-03-23T18:33:50.952Z,57.20
2023-03-23T18:36:21.975Z,57.20
2023-03-23T18:38:52.448Z,57.20
2023-03-23T18:41:21.583Z,57.20
2023-03-23T18:43:50.762Z,57.30
2023-03-23T18:46:20.252Z,57.30
2023-03-23T18:48:52.376Z,57.30
2023-03-23T18:51:19.612Z,57.50
2023-03-23T18:53:46.585Z,57.50
2023-03-23T18:56:16.454Z,57.50
2023-03-23T18:58:44.611Z,57.40
2023-03-23T19:01:17.749Z,57.40
2023-03-23T19:03:48.419Z,57.60
2023-03-23T19:06:20.325Z,57.40
2023-03-23T19:08:49.124Z,57.40
2023-03-23T19:11:19.399Z,57.50
2023-03-23T19:13:58.450Z,57.50
2023-03-23T19:16:35.660Z,57.50
2023-03-23T19:19:08.308Z,57.60
2023-03-23T19:21:37.585Z,57.60
2023-03-23T19:24:06.415Z,57.60
2023-03-23T19:26:38.276Z,57.60
2023-03-23T19:29:26.694Z,57.70
2023-03-23T19:31:58.404Z,57.80
2023-03-23T19:34:28.287Z,57.70
2023-03-23T19:37:04.731Z,57.70
2023-03-23T19:39:36.440Z,57.80
2023-03-23T19:42:06.503Z,57.90
2023-03-23T19:44:36.399Z,57.80
2023-03-23T19:47:07.209Z,57.90
2023-03-23T19:49:37.013Z,57.90
2023-03-23T19:52:11.600Z,57.90
2023-03-23T19:54:42.968Z,57.90
2023-03-23T19:57:12.611Z,58.00
2023-03-23T19:59:42.600Z,58.10
2023-03-23T20:02:12.682Z,58.00
2023-03-23T20:04:40.186Z,58.10
2023-03-23T20:07:12.920Z,58.10
2023-03-23T20:09:42.702Z,58.10
2023-03-23T20:12:09.952Z,58.10
2023-03-23T20:14:43.977Z,58.10
2023-03-23T20:17:17.947Z,58.20
2023-03-23T20:19:47.043Z,58.10
2023-03-23T20:22:14.525Z,58.10
2023-03-23T20:24:47.182Z,58.20
2023-03-23T20:27:16.434Z,58.20
2023-03-23T20:29:48.228Z,58.20
2023-03-23T20:32:19.957Z,58.30
2023-03-23T20:34:49.439Z,58.30
2023-03-23T20:37:25.848Z,58.40
2023-03-23T20:39:55.260Z,58.40
2023-03-23T20:42:22.178Z,58.30
2023-03-23T20:44:52.264Z,58.40
2023-03-23T20:47:21.379Z,58.40
2023-03-23T20:49:53.331Z,58.40
2023-03-23T20:52:23.234Z,58.40
2023-03-23T20:54:53.093Z,58.40
2023-03-23T20:57:23.253Z,58.50
2023-03-23T20:59:53.247Z,58.60
2023-03-23T21:02:21.223Z,58.50
2023-03-23T21:04:48.872Z,58.60
2023-03-23T21:07:16.282Z,59.20
2023-03-23T21:09:46.284Z,58.70
2023-03-23T21:12:13.356Z,58.70
2023-03-23T21:14:44.880Z,58.70
2023-03-23T21:17:14.192Z,58.80
2023-03-23T21:19:43.988Z,58.80
2023-03-23T21:22:18.603Z,58.90
2023-03-23T21:24:50.351Z,59.00
2023-03-23T21:27:17.668Z,59.00
2023-03-23T21:29:48.460Z,59.70
2023-03-23T21:32:15.355Z,59.10
2023-03-23T21:34:43.286Z,59.30
2023-03-23T21:37:17.331Z,59.30
2023-03-23T21:39:46.738Z,59.20
2023-03-23T21:42:15.674Z,59.30
2023-03-23T21:44:44.712Z,59.30
2023-03-23T21:47:13.862Z,59.40
2023-03-23T21:49:40.979Z,59.30
2023-03-23T21:52:08.338Z,59.40
2023-03-23T21:54:37.568Z,59.30
2023-03-23T21:57:06.780Z,59.40
2023-03-23T21:59:35.832Z,59.30
2023-03-23T22:02:04.934Z,59.20
2023-03-23T22:04:34.134Z,59.20
2023-03-23T22:07:05.645Z,59.20
2023-03-23T22:09:36.492Z,59.20
2023-03-23T22:12:11.135Z,59.20
2023-03-23T22:14:43.911Z,59.20
2023-03-23T22:17:15.820Z,59.20
2023-03-23T22:19:44.897Z,59.10
2023-03-23T22:22:19.377Z,59.10
2023-03-23T22:24:46.362Z,59.20
2023-03-23T22:27:14.799Z,59.10
2023-03-23T22:29:44.145Z,59.10
2023-03-23T22:32:11.388Z,59.20
2023-03-23T22:34:41.325Z,59.20
2023-03-23T22:37:08.313Z,59.10
2023-03-23T22:39:40.707Z,59.20
2023-03-23T22:42:12.364Z,59.20
2023-03-23T22:44:45.164Z,59.20
2023-03-23T22:47:12.535Z,59.10
2023-03-23T22:49:48.486Z,59.10
2023-03-23T22:52:24.776Z,59.10
2023-03-23T22:54:54.021Z,59.20
2023-03-23T22:57:23.451Z,59.10
2023-03-23T22:59:52.620Z,59.10
2023-03-23T23:02:21.813Z,59.10
2023-03-23T23:04:48.931Z,59.20
2023-03-23T23:07:19.638Z,59.20
2023-03-23T23:09:46.521Z,59.20
2023-03-23T23:12:16.970Z,59.20
2023-03-23T23:14:44.809Z,59.30
2023-03-23T23:17:13.813Z,59.40
2023-03-23T23:19:43.405Z,59.30
2023-03-23T23:22:19.068Z,59.40
2023-03-23T23:24:46.805Z,59.50
2023-03-23T23:27:18.615Z,59.60
2023-03-23T23:29:47.762Z,59.70
2023-03-23T23:32:16.864Z,59.80
2023-03-23T23:34:43.873Z,59.90
2023-03-23T23:37:10.718Z,59.90
2023-03-23T23:39:41.200Z,60.00
2023-03-23T23:42:10.939Z,60.20
2023-03-23T23:44:45.221Z,60.30
2023-03-23T23:47:12.394Z,60.40
2023-03-23T23:49:41.758Z,60.50
2023-03-23T23:52:11.362Z,60.60
2023-03-23T23:54:42.577Z,60.80
2023-03-23T23:57:12.243Z,60.90
2023-03-23T23:59:44.388Z,60.90
